Time;durP1;ratioP1;P1;durP2;ratioP2;P2;SDS_P1;SDS_P2;PMS_P1;PMS_P2;Temp;Humidity;BMP_temperature;BMP_pressure;BME280_temperature;BME280_humidity;BME280_pressure;Samples;Min_cycle;Max_cycle;Signal;HPM_P1;HPM_P2
2021/01/26 00:00:12;;;;;;;6.99;4.18;;;;;;;8.40;76.61;96756.45;350005;114;1961975;-72
2021/01/26 00:01:19;;;;;;;6.88;3.86;;;;;;;8.34;77.01;96750.20;351687;114;1962884;-71
2021/01/26 00:02:25;;;;;;;8.58;3.87;;;;;;;8.34;77.15;96742.14;328063;114;1961953;-71
2021/01/26 00:03:44;;;;;;;8.77;4.66;;;;;;;8.33;77.03;96735.12;349142;114;1961980;-71
2021/01/26 00:04:50;;;;;;;7.97;4.14;;;;;;;8.31;76.73;96729.22;315957;118;2463034;-70
2021/01/26 00:05:55;;;;;;;7.12;3.80;;;;;;;8.32;76.86;96744.28;329246;118;1962013;-72
2021/01/26 00:07:00;;;;;;;8.67;4.58;;;;;;;8.32;77.16;96744.28;341030;118;1962990;-70
2021/01/26 00:08:06;;;;;;;8.56;3.99;;;;;;;8.33;77.02;96743.19;342814;118;1961996;-71
2021/01/26 00:09:12;;;;;;;9.50;4.00;;;;;;;8.35;76.93;96738.37;345831;116;1962879;-71
2021/01/26 00:10:18;;;;;;;7.29;3.74;;;;;;;8.41;76.29;96733.84;341841;118;1962020;-71
2021/01/26 00:11:24;;;;;;;9.97;4.16;;;;;;;8.37;76.18;96731.66;341804;118;1961963;-70
2021/01/26 00:12:30;;;;;;;7.11;4.36;;;;;;;8.36;76.34;96726.52;334535;118;2951995;-71
2021/01/26 00:13:36;;;;;;;7.29;4.40;;;;;;;8.32;76.47;96739.70;342784;118;1961956;-70
2021/01/26 00:14:41;;;;;;;7.52;4.41;;;;;;;8.29;76.65;96736.73;342212;116;1962029;-71
2021/01/26 00:15:47;;;;;;;8.02;4.45;;;;;;;8.28;76.71;96732.41;342943;118;1962945;-71
2021/01/26 00:16:54;;;;;;;8.37;3.76;;;;;;;8.25;76.84;96733.75;341446;118;1962000;-71
2021/01/26 00:18:01;;;;;;;8.43;4.30;;;;;;;8.23;77.02;96737.77;302850;118;2703061;-71
2021/01/26 00:19:07;;;;;;;9.02;5.00;;;;;;;8.22;76.86;96741.54;343064;118;1961984;-71
2021/01/26 00:20:15;;;;;;;6.82;3.83;;;;;;;8.23;76.67;96730.53;335774;120;1962049;-72
2021/01/26 00:21:22;;;;;;;7.60;4.15;;;;;;;8.19;76.61;96734.00;322487;118;1961976;-71
2021/01/26 00:22:27;;;;;;;8.88;4.07;;;;;;;8.14;76.62;96730.20;336182;120;1961939;-70
2021/01/26 00:23:32;;;;;;;9.28;4.55;;;;;;;8.12;76.76;96732.38;341048;116;1962899;-70
2021/01/26 00:24:42;;;;;;;7.67;4.37;;;;;;;8.12;76.75;96734.23;335269;119;1962012;-71
2021/01/26 00:25:47;;;;;;;7.94;4.33;;;;;;;8.15;76.69;96731.04;341392;117;1962057;-71
2021/01/26 00:26:53;;;;;;;7.59;3.87;;;;;;;8.04;76.82;96730.16;328713;122;1961967;-70
2021/01/26 00:28:01;;;;;;;10.18;4.60;;;;;;;8.05;76.99;96721.05;330489;121;1961923;-71
2021/01/26 00:29:08;;;;;;;7.09;4.21;;;;;;;7.99;77.10;96713.20;298736;118;1983040;-70
2021/01/26 00:30:20;;;;;;;7.57;3.83;;;;;;;7.92;77.30;96721.52;295251;120;2740952;-70
2021/01/26 00:31:26;;;;;;;9.01;4.03;;;;;;;7.96;77.23;96725.28;334131;119;1961924;-70
2021/01/26 00:32:32;;;;;;;6.69;3.49;;;;;;;8.03;77.00;96722.38;340550;117;1962031;-70
2021/01/26 00:33:38;;;;;;;6.82;4.28;;;;;;;8.00;76.91;96715.64;340987;117;1962973;-71
2021/01/26 00:34:43;;;;;;;7.39;4.23;;;;;;;8.00;76.71;96715.64;340123;118;1961965;-71
2021/01/26 00:35:50;;;;;;;7.41;3.82;;;;;;;7.96;77.06;96727.17;333189;120;1962025;-71
2021/01/26 00:36:55;;;;;;;9.59;3.77;;;;;;;7.86;77.12;96706.45;334862;120;1962923;-71
2021/01/26 00:38:02;;;;;;;7.47;3.81;;;;;;;7.89;77.26;96713.98;290764;120;2825995;-71
2021/01/26 00:39:08;;;;;;;5.90;3.27;;;;;;;7.86;77.51;96719.88;346331;116;1961972;-71
2021/01/26 00:40:16;;;;;;;8.63;3.93;;;;;;;7.83;77.62;96720.38;347219;115;1961944;-70
2021/01/26 00:41:21;;;;;;;7.76;4.02;;;;;;;7.85;77.40;96707.49;317624;115;2516044;-71
2021/01/26 00:42:27;;;;;;;7.13;3.79;;;;;;;7.89;77.14;96716.67;330702;116;1961945;-71
2021/01/26 00:43:37;;;;;;;8.41;3.63;;;;;;;7.92;76.98;96722.31;293820;116;2119926;-72
2021/01/26 00:44:42;;;;;;;6.92;3.68;;;;;;;7.92;76.88;96716.94;311060;115;1961898;-71
2021/01/26 00:45:47;;;;;;;7.15;3.78;;;;;;;7.77;77.16;96700.73;328290;115;1961929;-70
2021/01/26 00:46:53;;;;;;;8.54;3.95;;;;;;;7.92;76.99;96711.56;348078;115;1962030;-70
2021/01/26 00:47:58;;;;;;;8.20;3.82;;;;;;;7.91;77.15;96711.81;345240;116;1961984;-72
2021/01/26 00:49:06;;;;;;;6.39;3.64;;;;;;;7.92;77.01;96706.19;339831;117;1962004;-71
2021/01/26 00:50:13;;;;;;;7.85;3.78;;;;;;;7.87;76.99;96708.05;291674;117;2105010;-71
2021/01/26 00:51:19;;;;;;;7.65;4.01;;;;;;;7.88;77.13;96698.91;346463;115;1962039;-71
2021/01/26 00:52:25;;;;;;;8.68;3.74;;;;;;;7.81;77.23;96701.84;346153;115;1965337;-71
2021/01/26 00:53:32;;;;;;;7.87;3.97;;;;;;;7.81;77.66;96715.28;288195;115;2186044;-69
2021/01/26 00:54:40;;;;;;;7.89;3.91;;;;;;;7.82;77.46;96708.82;346709;116;1961959;-70
2021/01/26 00:55:46;;;;;;;6.90;3.35;;;;;;;7.77;77.53;96695.36;346511;116;1962003;-71
2021/01/26 00:56:52;;;;;;;6.53;3.36;;;;;;;7.82;77.47;96708.02;322055;115;2410973;-70
2021/01/26 00:57:58;;;;;;;6.78;3.42;;;;;;;7.82;77.39;96697.27;346319;115;1961947;-73
2021/01/26 00:59:04;;;;;;;8.99;3.68;;;;;;;7.82;77.50;96708.02;346803;115;1960676;-71
2021/01/26 01:00:14;;;;;;;6.46;3.43;;;;;;;7.80;77.33;96720.91;346490;115;1961979;-70
2021/01/26 01:01:19;;;;;;;5.61;3.11;;;;;;;7.83;77.46;96717.69;346683;115;1961969;-72
2021/01/26 01:02:24;;;;;;;6.79;3.63;;;;;;;7.90;77.39;96718.27;347924;116;1963907;-70
2021/01/26 01:03:30;;;;;;;5.11;2.85;;;;;;;7.88;77.54;96715.03;347411;116;1962035;-71
2021/01/26 01:04:36;;;;;;;5.82;3.16;;;;;;;7.90;77.10;96719.08;347610;116;1961991;-71
2021/01/26 01:05:41;;;;;;;5.49;3.01;;;;;;;7.90;76.93;96737.89;346701;117;1962947;-69
2021/01/26 01:06:48;;;;;;;4.50;2.27;;;;;;;7.95;76.70;96749.75;298504;115;2856895;-70
2021/01/26 01:07:53;;;;;;;3.58;1.87;;;;;;;7.94;75.81;96757.02;325084;117;1961946;-71
2021/01/26 01:08:58;;;;;;;1.66;0.62;;;;;;;7.88;74.57;96771.47;333329;114;1965022;-70
2021/01/26 01:10:06;;;;;;;4.80;1.34;;;;;;;7.75;71.91;96777.30;345913;115;1961977;-70
2021/01/26 01:11:12;;;;;;;2.67;0.94;;;;;;;7.46;72.76;96774.94;343575;116;1961592;-70
2021/01/26 01:12:18;;;;;;;2.51;1.09;;;;;;;6.99;74.35;96779.11;302607;115;2800031;-70
2021/01/26 01:13:23;;;;;;;1.70;0.79;;;;;;;6.88;72.76;96780.08;313333;115;1963976;-70
2021/01/26 01:14:28;;;;;;;1.64;0.70;;;;;;;6.57;72.25;96785.11;329971;115;1961984;-70
2021/01/26 01:15:34;;;;;;;1.29;0.64;;;;;;;6.38;71.36;96781.94;349631;115;1961955;-71
2021/01/26 01:16:42;;;;;;;2.79;1.16;;;;;;;6.14;71.22;96785.93;347146;115;1961920;-71
2021/01/26 01:17:49;;;;;;;1.71;0.90;;;;;;;5.78;72.11;96781.91;298572;115;2869956;-70
2021/01/26 01:19:01;;;;;;;1.22;0.57;;;;;;;5.59;72.02;96776.02;347705;115;1961991;-70
2021/01/26 01:20:09;;;;;;;1.83;0.94;;;;;;;5.44;72.21;96779.26;348766;114;1961961;-71
2021/01/26 01:21:14;;;;;;;2.01;0.81;;;;;;;5.10;73.33;96789.14;348160;114;1960950;-70
2021/01/26 01:22:19;;;;;;;1.13;0.65;;;;;;;5.01;72.84;96800.23;349595;114;1961956;-71
2021/01/26 01:23:25;;;;;;;1.56;0.86;;;;;;;4.83;73.46;96819.96;350575;113;1961963;-70
2021/01/26 01:24:30;;;;;;;1.47;0.72;;;;;;;4.72;73.65;96790.61;354781;113;1962888;-71
2021/01/26 01:25:35;;;;;;;1.36;0.78;;;;;;;4.58;74.87;96803.45;353535;113;1961984;-70
2021/01/26 01:26:46;;;;;;;1.20;0.70;;;;;;;4.51;74.47;96800.09;302962;113;2233946;-70
2021/01/26 01:27:53;;;;;;;2.01;0.90;;;;;;;4.35;75.39;96802.46;345243;113;2938922;-71
2021/01/26 01:28:58;;;;;;;1.46;0.69;;;;;;;4.27;75.46;96802.03;332916;113;1962862;-70
2021/01/26 01:30:07;;;;;;;1.21;0.74;;;;;;;4.19;75.74;96803.20;354414;113;1961965;-70
2021/01/26 01:31:12;;;;;;;1.84;0.94;;;;;;;4.18;75.58;96817.59;331985;113;2310987;-68
2021/01/26 01:32:18;;;;;;;1.16;0.73;;;;;;;4.12;75.72;96816.67;339602;113;1962013;-69
2021/01/26 01:33:24;;;;;;;3.04;0.96;;;;;;;4.04;76.11;96808.22;354716;113;1961932;-69
2021/01/26 01:34:31;;;;;;;1.80;0.84;;;;;;;3.93;76.89;96812.52;355374;113;1961948;-70
2021/01/26 01:35:38;;;;;;;2.47;1.24;;;;;;;3.87;76.83;96838.31;310470;114;2760010;-69
2021/01/26 01:36:44;;;;;;;2.13;0.94;;;;;;;3.86;76.73;96817.97;356366;114;1961925;-69
2021/01/26 01:37:50;;;;;;;1.58;0.96;;;;;;;3.79;76.34;96851.20;355226;113;1961671;-70
2021/01/26 01:38:56;;;;;;;1.98;0.89;;;;;;;3.83;75.88;96836.33;354993;113;1962886;-70
2021/01/26 01:40:04;;;;;;;1.69;1.06;;;;;;;3.81;76.05;96819.72;311386;113;2778938;-70
2021/01/26 01:41:10;;;;;;;1.86;0.96;;;;;;;3.65;77.03;96826.56;356756;111;1960676;-70
2021/01/26 01:42:15;;;;;;;2.40;1.18;;;;;;;3.67;76.55;96846.64;361497;112;1963955;-69
2021/01/26 01:43:21;;;;;;;1.97;0.99;;;;;;;3.62;76.58;96829.70;316163;112;2739973;-70
2021/01/26 01:44:29;;;;;;;3.67;1.27;;;;;;;3.58;76.63;96832.03;330756;112;1962042;-70
2021/01/26 01:45:38;;;;;;;1.56;0.89;;;;;;;3.45;77.01;96840.25;361156;109;1960826;-73
2021/01/26 01:46:48;;;;;;;3.47;1.24;;;;;;;3.46;77.16;96858.69;359041;110;1968720;-73
2021/01/26 01:48:07;;;;;;;2.22;1.01;;;;;;;3.50;76.78;96843.05;360951;110;1960803;-73
2021/01/26 01:49:17;;;;;;;3.02;1.33;;;;;;;3.48;76.82;96875.28;355585;112;1961061;-73
2021/01/26 01:50:31;;;;;;;1.76;1.04;;;;;;;3.51;76.66;96871.34;353874;114;1963941;-72
2021/01/26 01:51:40;;;;;;;1.76;1.09;;;;;;;3.42;76.68;96865.54;330399;116;1961989;-72
2021/01/26 01:52:47;;;;;;;1.62;0.93;;;;;;;3.39;77.05;96868.67;334859;114;2249006;-72
2021/01/26 01:53:59;;;;;;;2.91;1.12;;;;;;;3.36;77.14;96865.62;356587;114;1962017;-73
2021/01/26 01:55:14;;;;;;;4.24;1.20;;;;;;;3.35;77.35;96878.16;321088;112;2560065;-73
2021/01/26 01:56:44;;;;;;;3.37;0.97;;;;;;;3.39;76.59;96883.87;319924;112;1961948;-73
2021/01/26 01:57:59;;;;;;;2.48;1.14;;;;;;;3.37;76.81;96880.61;304985;112;2101150;31
2021/01/26 01:59:11;;;;;;;2.42;1.16;;;;;;;3.36;76.77;96908.31;310308;118;1962997;-73
2021/01/26 02:00:20;;;;;;;2.13;1.04;;;;;;;3.38;76.51;96899.05;347138;115;1962044;-73
2021/01/26 02:01:28;;;;;;;2.24;1.08;;;;;;;3.37;76.59;96904.63;340560;115;1961965;-71
2021/01/26 02:02:38;;;;;;;3.48;1.54;;;;;;;3.28;76.66;96894.28;326540;114;2366971;-72
2021/01/26 02:03:48;;;;;;;2.26;0.94;;;;;;;3.30;76.73;96915.38;310957;109;2778231;-70
2021/01/26 02:05:00;;;;;;;2.42;1.12;;;;;;;3.34;76.63;96929.09;303200;112;2835976;-70
2021/01/26 02:06:06;;;;;;;1.79;1.04;;;;;;;3.34;76.49;96919.23;353771;113;1961926;-69
2021/01/26 02:07:12;;;;;;;2.98;1.14;;;;;;;3.34;76.31;96902.42;352608;113;1963992;-69
2021/01/26 02:08:21;;;;;;;1.98;1.06;;;;;;;3.33;76.32;96938.93;350102;114;1962948;-70
2021/01/26 02:09:35;;;;;;;1.56;0.92;;;;;;;3.32;76.39;96918.64;344620;117;1961966;31
2021/01/26 02:10:43;;;;;;;1.82;0.89;;;;;;;3.33;75.83;96959.47;322282;117;1961966;-70
2021/01/26 02:11:49;;;;;;;1.76;1.02;;;;;;;3.33;75.82;96930.92;351744;114;1962975;-70
2021/01/26 02:12:54;;;;;;;3.32;0.99;;;;;;;3.23;76.71;96920.02;350085;113;1961998;-70
2021/01/26 02:14:00;;;;;;;2.59;1.13;;;;;;;3.28;76.20;96952.97;347656;116;1962943;-70
2021/01/26 02:15:07;;;;;;;2.03;1.02;;;;;;;3.21;76.87;96919.42;353353;114;1963952;-68
2021/01/26 02:16:18;;;;;;;1.59;0.99;;;;;;;3.14;77.28;96924.83;356169;114;1961888;-70
2021/01/26 02:17:46;;;;;;;2.06;0.96;;;;;;;3.24;76.64;96945.64;347976;115;1962045;-70
2021/01/26 02:19:05;;;;;;;1.51;0.94;;;;;;;3.23;77.19;96944.02;313821;112;2722069;-69
2021/01/26 02:20:40;;;;;;;2.01;1.10;;;;;;;3.18;77.40;96949.22;355788;112;1961957;-69
2021/01/26 02:22:24;;;;;;;2.49;0.96;;;;;;;3.16;77.06;96933.42;346658;112;2951983;-70
2021/01/26 02:24:08;;;;;;;2.14;1.23;;;;;;;3.12;77.08;96937.57;355103;112;1961967;-70
2021/01/26 02:25:35;;;;;;;1.40;0.81;;;;;;;2.92;78.09;96950.36;353984;114;1961988;-68
2021/01/26 02:27:02;;;;;;;1.08;0.67;;;;;;;2.97;77.21;96955.84;314443;112;2038937;-71
2021/01/26 02:28:41;;;;;;;2.32;1.07;;;;;;;2.98;77.08;96968.13;354531;113;1961981;-69
2021/01/26 02:30:07;;;;;;;2.07;1.08;;;;;;;2.98;76.71;96965.45;351832;114;1962040;-70
2021/01/26 02:31:16;;;;;;;2.81;1.24;;;;;;;2.82;77.24;96970.34;345116;115;1962015;-69
2021/01/26 02:32:38;;;;;;;2.35;1.19;;;;;;;2.81;77.58;96978.59;349849;112;1962026;-70
2021/01/26 02:34:23;;;;;;;3.11;1.47;;;;;;;2.75;77.99;96960.80;352419;114;1961981;-69
2021/01/26 02:35:50;;;;;;;1.56;0.91;;;;;;;2.79;77.52;96980.66;350620;113;1962012;-70
2021/01/26 02:37:11;;;;;;;2.08;1.24;;;;;;;2.80;77.66;96975.08;350895;115;1962009;-70
2021/01/26 02:38:29;;;;;;;1.92;1.03;;;;;;;2.80;77.79;96979.61;349795;113;1961904;-70
2021/01/26 02:39:58;;;;;;;1.20;0.87;;;;;;;2.80;77.71;96999.08;352302;114;1962920;-70
2021/01/26 02:41:14;;;;;;;2.03;1.16;;;;;;;2.77;77.68;96978.20;315922;113;1973513;-70
2021/01/26 02:42:29;;;;;;;1.86;0.93;;;;;;;2.71;77.87;97003.08;355862;113;1963019;-70
2021/01/26 02:44:01;;;;;;;2.52;1.26;;;;;;;2.74;77.35;96986.64;356659;113;1962044;-70
2021/01/26 02:45:16;;;;;;;2.53;0.88;;;;;;;2.56;78.61;96995.44;355889;113;1964016;-70
2021/01/26 02:46:45;;;;;;;2.06;0.94;;;;;;;2.61;78.51;97019.58;351905;115;1962926;-69
2021/01/26 02:47:56;;;;;;;1.98;1.13;;;;;;;2.67;78.16;96999.22;350017;115;1961972;-69
2021/01/26 02:49:14;;;;;;;1.58;0.85;;;;;;;2.72;77.50;97028.69;313184;111;2721749;-69
2021/01/26 02:50:24;;;;;;;3.01;0.97;;;;;;;2.68;77.54;97000.86;358635;111;1964899;-70
2021/01/26 02:51:37;;;;;;;2.80;1.33;;;;;;;2.68;77.44;96998.20;361509;111;1962003;-70
2021/01/26 02:53:01;;;;;;;2.04;0.87;;;;;;;2.63;77.71;97000.71;357335;111;1961962;-69
2021/01/26 02:54:14;;;;;;;3.37;1.48;;;;;;;2.63;77.93;97008.70;343256;116;1961943;-70
2021/01/26 02:55:38;;;;;;;3.12;1.54;;;;;;;2.69;77.39;96999.81;340717;116;1961956;-69
2021/01/26 02:57:01;;;;;;;1.73;1.14;;;;;;;2.63;77.96;97003.38;341454;117;1962047;-71
2021/01/26 02:58:09;;;;;;;3.90;1.38;;;;;;;2.63;77.62;97030.02;315307;114;1962948;-70
2021/01/26 02:59:31;;;;;;;1.89;1.02;;;;;;;2.64;77.68;97015.66;319728;113;2580038;-71
2021/01/26 03:00:39;;;;;;;1.85;1.15;;;;;;;2.64;77.43;97036.97;352686;113;1962011;-70
2021/01/26 03:01:50;;;;;;;2.31;1.09;;;;;;;2.58;77.40;97021.87;353870;113;1963054;-70
2021/01/26 03:03:11;;;;;;;3.47;1.62;;;;;;;2.60;77.41;97036.61;346113;113;1961954;-69
2021/01/26 03:04:20;;;;;;;2.96;1.48;;;;;;;2.55;77.62;97031.13;353162;113;1962041;-70
2021/01/26 03:05:32;;;;;;;4.79;2.04;;;;;;;2.45;77.98;97029.99;352401;113;1961933;-70
2021/01/26 03:06:45;;;;;;;3.37;1.65;;;;;;;2.47;77.76;97050.05;352069;113;1961994;-70
2021/01/26 03:07:54;;;;;;;4.03;1.69;;;;;;;2.37;77.98;97031.08;354824;113;1963911;-70
2021/01/26 03:09:03;;;;;;;4.10;1.62;;;;;;;2.40;77.97;97049.29;311062;115;2059464;-70
2021/01/26 03:10:13;;;;;;;3.92;1.83;;;;;;;2.34;77.95;97055.50;307463;113;2091691;-70
2021/01/26 03:11:25;;;;;;;5.17;2.46;;;;;;;2.42;77.34;97071.20;333529;113;2328956;-71
2021/01/26 03:12:40;;;;;;;5.70;2.39;;;;;;;2.42;77.15;97028.58;353117;113;1963957;-68
2021/01/26 03:13:50;;;;;;;5.46;2.61;;;;;;;2.39;77.32;97034.35;352548;113;1963939;-70
2021/01/26 03:15:00;;;;;;;7.01;2.83;;;;;;;2.31;77.62;97038.09;352015;113;1961944;-70
2021/01/26 03:16:13;;;;;;;6.62;2.89;;;;;;;2.33;77.19;97027.21;350469;113;1962025;-70
2021/01/26 03:17:42;;;;;;;6.37;3.14;;;;;;;2.41;76.82;97045.61;350427;113;1962029;-70
2021/01/26 03:18:51;;;;;;;5.27;2.64;;;;;;;2.26;77.93;97045.92;324926;113;1962000;-70
2021/01/26 03:20:00;;;;;;;7.60;3.49;;;;;;;2.33;76.80;97069.83;313478;113;2891039;-70
2021/01/26 03:21:09;;;;;;;5.78;2.86;;;;;;;2.24;77.32;97045.32;320929;113;2907059;-70
2021/01/26 03:22:19;;;;;;;5.82;2.69;;;;;;;2.17;77.32;97034.73;354559;113;1961986;-69
2021/01/26 03:23:34;;;;;;;7.77;3.47;;;;;;;2.23;77.46;97027.72;353075;113;1965009;-71
2021/01/26 03:24:42;;;;;;;6.11;3.07;;;;;;;2.26;76.77;97045.92;352606;113;1961994;-70
2021/01/26 03:25:51;;;;;;;8.87;3.69;;;;;;;2.24;76.83;97052.50;352858;113;1961987;-70
2021/01/26 03:26:57;;;;;;;7.08;3.63;;;;;;;2.32;76.56;97036.25;325066;113;1962032;-70
2021/01/26 03:28:07;;;;;;;7.20;3.61;;;;;;;2.31;77.06;97043.42;353614;113;1961895;-70
2021/01/26 03:29:22;;;;;;;7.50;3.72;;;;;;;2.24;77.42;97032.00;358384;113;1961879;-70
2021/01/26 03:30:39;;;;;;;8.44;3.62;;;;;;;2.27;77.51;97031.56;353014;113;1961971;-70
2021/01/26 03:31:52;;;;;;;6.33;3.69;;;;;;;2.28;77.27;97048.38;351927;113;1962034;-70
2021/01/26 03:33:02;;;;;;;6.73;3.52;;;;;;;2.36;76.94;97048.92;353663;113;1960953;-69
2021/01/26 03:34:08;;;;;;;8.26;4.18;;;;;;;2.41;76.57;97065.06;345261;115;1960826;-70
2021/01/26 03:35:16;;;;;;;6.69;3.52;;;;;;;2.39;76.16;97091.10;304162;115;2769821;-69
2021/01/26 03:36:23;;;;;;;7.93;4.04;;;;;;;2.45;76.19;97076.09;356002;113;1960819;-70
2021/01/26 03:37:29;;;;;;;7.24;4.01;;;;;;;2.46;76.48;97068.91;325669;113;2475886;-69
2021/01/26 03:38:34;;;;;;;6.18;3.04;;;;;;;2.41;76.19;97066.92;328541;113;1961958;-69
2021/01/26 03:39:41;;;;;;;7.51;3.92;;;;;;;2.48;75.63;97104.16;350823;113;1962018;-70
2021/01/26 03:40:49;;;;;;;8.27;3.43;;;;;;;2.60;74.85;97065.92;349556;114;1962071;-70
2021/01/26 03:41:55;;;;;;;4.92;2.86;;;;;;;2.54;74.69;97077.47;345974;117;1961962;-69
2021/01/26 03:43:00;;;;;;;7.57;3.96;;;;;;;2.53;74.96;97085.67;352585;113;1962996;-70
2021/01/26 03:44:19;;;;;;;7.24;3.71;;;;;;;2.60;74.80;97081.11;352046;113;1962003;-69
2021/01/26 03:45:24;;;;;;;8.90;3.59;;;;;;;2.57;74.71;97078.88;356639;112;1964944;-70
2021/01/26 03:46:36;;;;;;;8.21;3.78;;;;;;;2.48;74.49;97090.83;353424;112;1963078;-71
2021/01/26 03:48:00;;;;;;;8.92;3.12;;;;;;;2.56;74.46;97079.89;353962;112;1963914;-70
2021/01/26 03:49:18;;;;;;;10.34;4.51;;;;;;;2.56;74.75;97072.71;360316;110;1969874;-70
2021/01/26 03:50:48;;;;;;;11.09;4.71;;;;;;;2.54;75.12;97069.47;353711;112;1961958;-70
2021/01/26 03:52:21;;;;;;;10.66;5.14;;;;;;;2.57;74.68;97082.36;356572;111;1962076;-69
2021/01/26 03:53:46;;;;;;;12.00;4.77;;;;;;;2.15;75.12;97025.33;306227;111;2148271;-70
2021/01/26 03:55:01;;;;;;;8.46;4.12;;;;;;;2.62;74.69;97084.38;337974;112;1963030;-70
2021/01/26 03:56:16;;;;;;;8.87;4.78;;;;;;;2.65;74.27;97089.27;333458;116;1961985;-70
2021/01/26 03:57:42;;;;;;;9.24;4.83;;;;;;;2.71;73.47;97084.91;346322;110;1962028;-70
2021/01/26 03:58:54;;;;;;;6.72;3.63;;;;;;;2.63;73.73;97075.33;359002;110;1962024;-70
2021/01/26 04:00:32;;;;;;;8.83;4.58;;;;;;;2.61;74.20;97112.85;357667;110;1961869;-70
2021/01/26 04:01:44;;;;;;;8.96;4.47;;;;;;;2.60;74.33;97099.76;359172;110;1960852;-70
2021/01/26 04:03:19;;;;;;;8.96;4.83;;;;;;;2.62;73.90;97092.38;338901;110;2286915;-70
2021/01/26 04:04:40;;;;;;;9.74;5.32;;;;;;;2.65;73.75;97107.92;342904;108;1960906;-70
2021/01/26 04:05:58;;;;;;;11.98;5.34;;;;;;;2.62;73.32;97111.02;352781;112;1962982;-69
2021/01/26 04:07:11;;;;;;;10.73;5.58;;;;;;;2.63;73.52;97118.78;307061;112;2105083;-70
2021/01/26 04:08:19;;;;;;;9.50;5.02;;;;;;;2.59;73.27;97109.61;353775;112;1961984;-71
2021/01/26 04:09:33;;;;;;;10.74;5.71;;;;;;;2.66;73.29;97114.88;318060;115;1962990;-70
2021/01/26 04:10:43;;;;;;;10.46;6.35;;;;;;;2.59;73.66;97130.94;345435;115;1964022;-70
2021/01/26 04:12:02;;;;;;;10.60;5.59;;;;;;;2.60;73.62;97113.08;295742;116;2082305;-69
2021/01/26 04:13:12;;;;;;;8.36;4.38;;;;;;;2.62;73.53;97117.16;293805;116;2829871;-74
2021/01/26 04:14:27;;;;;;;9.88;5.53;;;;;;;2.69;73.06;97100.30;298416;116;2850934;-72
2021/01/26 04:15:45;;;;;;;9.14;4.91;;;;;;;2.66;73.69;97116.72;317643;116;2469979;-72
2021/01/26 04:17:01;;;;;;;10.41;6.08;;;;;;;2.63;72.90;97137.44;346905;114;1960943;-72
2021/01/26 04:18:10;;;;;;;10.78;5.32;;;;;;;2.67;72.93;97124.48;322371;115;2395018;-73
2021/01/26 04:19:23;;;;;;;9.80;5.53;;;;;;;2.63;72.91;97131.30;343684;116;1960997;-73
2021/01/26 04:20:37;;;;;;;9.62;5.12;;;;;;;2.68;73.19;97112.00;348685;114;1962047;-73
2021/01/26 04:21:48;;;;;;;10.45;5.81;;;;;;;2.66;72.62;97138.86;335974;114;1962035;-73
2021/01/26 04:22:56;;;;;;;6.87;3.91;;;;;;;2.63;72.37;97147.30;349359;114;1960866;-72
2021/01/26 04:24:02;;;;;;;7.12;3.79;;;;;;;2.73;72.16;97141.48;321421;115;2388609;-73
2021/01/26 04:25:26;;;;;;;9.88;5.70;;;;;;;2.70;72.48;97118.75;341313;116;1961807;-73
2021/01/26 04:26:35;;;;;;;9.59;4.99;;;;;;;2.67;72.77;97129.00;345763;115;1961949;-74
2021/01/26 04:27:41;;;;;;;10.24;5.32;;;;;;;2.58;73.55;97123.95;327635;115;2289060;-74
2021/01/26 04:28:52;;;;;;;11.93;4.96;;;;;;;2.61;73.38;97125.36;324180;115;1962026;-74
2021/01/26 04:29:54;;;;;;;9.94;5.58;;;;;;;2.66;72.95;97127.39;348726;114;1962003;-73
2021/01/26 04:31:01;;;;;;;9.98;5.42;;;;;;;2.68;72.92;97131.47;316862;114;2555052;-75
2021/01/26 04:32:08;;;;;;;9.36;4.98;;;;;;;2.73;72.54;97134.30;350201;111;1962891;-72
2021/01/26 04:33:15;;;;;;;9.27;5.81;;;;;;;2.59;72.50;97152.25;353387;112;1961990;-73
2021/01/26 04:34:20;;;;;;;10.71;5.83;;;;;;;2.61;72.97;97136.02;344463;112;1962057;-72
2021/01/26 04:35:26;;;;;;;11.32;6.68;;;;;;;2.56;73.10;97151.84;354414;112;1963055;-73
2021/01/26 04:36:33;;;;;;;10.68;6.15;;;;;;;2.62;72.67;97138.48;354244;112;1962050;-72
2021/01/26 04:37:39;;;;;;;9.47;5.12;;;;;;;2.59;72.82;97178.91;311635;112;2757032;-72
2021/01/26 04:38:44;;;;;;;10.96;6.13;;;;;;;2.59;73.12;97156.73;320099;112;1965026;-72
2021/01/26 04:39:49;;;;;;;11.98;5.93;;;;;;;2.61;72.84;97141.36;344458;113;1962082;-72
2021/01/26 04:40:59;;;;;;;12.24;5.66;;;;;;;2.53;73.30;97142.44;353814;112;1962845;-74
2021/01/26 04:42:17;;;;;;;8.93;5.16;;;;;;;2.50;72.96;97174.04;352383;112;1961907;-72
2021/01/26 04:43:38;;;;;;;11.77;6.18;;;;;;;2.51;73.28;97171.14;316104;112;2669945;-72
2021/01/26 04:45:04;;;;;;;9.46;5.40;;;;;;;2.56;72.77;97146.52;325423;114;1961999;-72
2021/01/26 04:46:29;;;;;;;11.99;6.42;;;;;;;2.54;73.04;97156.57;354930;112;1962084;-72
2021/01/26 04:47:53;;;;;;;12.44;6.14;;;;;;;2.47;73.05;97143.31;355004;114;1962967;-73
2021/01/26 04:49:17;;;;;;;8.99;4.85;;;;;;;2.42;73.29;97157.27;352654;112;1961881;-72
2021/01/26 04:50:43;;;;;;;11.41;6.68;;;;;;;2.47;72.80;97169.15;349638;114;1961926;-74
2021/01/26 04:52:13;;;;;;;10.51;6.46;;;;;;;2.59;72.68;97164.73;349106;114;1962040;-73
2021/01/26 04:53:41;;;;;;;10.01;5.51;;;;;;;2.54;72.61;97153.91;350380;114;1961954;-74
2021/01/26 04:55:00;;;;;;;13.43;6.92;;;;;;;2.61;71.39;97149.35;351066;114;1961953;-74
2021/01/26 04:56:40;;;;;;;9.11;5.03;;;;;;;2.48;72.09;97158.25;300771;114;2141950;-74
2021/01/26 04:57:52;;;;;;;9.89;5.44;;;;;;;2.47;71.96;97163.81;302616;117;2240013;-73
2021/01/26 04:58:59;;;;;;;;;;;;;;;2.57;71.35;97190.81;343768;117;1960992;-74
2021/01/26 05:00:09;;;;;;;11.56;5.23;;;;;;;2.60;71.26;97177.86;303260;116;2704090;-74
2021/01/26 05:01:35;;;;;;;9.56;5.20;;;;;;;2.56;71.41;97167.84;326662;114;2375083;-73
2021/01/26 05:03:04;;;;;;;10.12;5.64;;;;;;;2.57;70.81;97172.97;348307;114;1961998;-72
2021/01/26 05:04:17;;;;;;;11.03;5.71;;;;;;;2.55;70.85;97172.36;340175;110;1959712;-73
2021/01/26 05:05:25;;;;;;;14.57;6.41;;;;;;;2.61;70.80;97181.33;357284;111;1962034;-75
2021/01/26 05:06:34;;;;;;;9.27;5.51;;;;;;;2.60;70.78;97201.84;356609;111;1962026;-74
2021/01/26 05:07:46;;;;;;;9.43;5.07;;;;;;;2.55;70.39;97193.67;355965;111;1965899;-74
2021/01/26 05:08:54;;;;;;;10.71;4.68;;;;;;;2.65;70.39;97193.20;356958;111;1961988;-75
2021/01/26 05:10:09;;;;;;;9.03;4.37;;;;;;;2.67;69.87;97199.11;351999;112;1962085;-73
2021/01/26 05:11:18;;;;;;;11.21;5.99;;;;;;;2.64;69.62;97186.23;348485;114;1961065;-73
2021/01/26 05:12:27;;;;;;;9.54;5.06;;;;;;;2.71;69.75;97226.98;348457;114;1961862;-74
2021/01/26 05:13:45;;;;;;;11.44;6.38;;;;;;;2.74;69.48;97193.75;301658;114;2209467;-74
2021/01/26 05:14:54;;;;;;;12.38;6.55;;;;;;;2.62;69.79;97193.64;348523;114;1961995;-75
2021/01/26 05:16:07;;;;;;;12.46;6.32;;;;;;;2.51;69.46;97188.98;349004;114;1962913;-73
2021/01/26 05:17:22;;;;;;;9.52;5.16;;;;;;;2.37;70.29;97202.39;348283;114;1962931;-74
2021/01/26 05:18:40;;;;;;;9.28;5.06;;;;;;;2.34;69.76;97199.34;349967;114;1961996;-75
2021/01/26 05:19:49;;;;;;;10.52;5.43;;;;;;;2.22;70.30;97209.84;319776;114;1963942;-75
2021/01/26 05:21:02;;;;;;;9.73;5.60;;;;;;;2.12;70.64;97196.20;317090;114;2238969;-74
2021/01/26 05:22:11;;;;;;;11.21;6.38;;;;;;;2.11;71.14;97199.88;348213;114;1961946;-73
2021/01/26 05:23:20;;;;;;;10.14;5.16;;;;;;;2.07;71.71;97209.33;348001;114;1961963;-74
2021/01/26 05:24:34;;;;;;;10.30;5.25;;;;;;;1.43;71.51;97118.70;346370;114;1961965;-74
2021/01/26 05:25:39;;;;;;;10.36;4.79;;;;;;;2.11;71.60;97205.20;297635;116;2226114;-74
2021/01/26 05:26:46;;;;;;;9.79;5.26;;;;;;;2.22;70.85;97233.00;347475;114;1962066;-74
2021/01/26 05:28:01;;;;;;;9.47;4.75;;;;;;;2.28;70.74;97229.52;348667;114;1961969;-74
2021/01/26 05:29:08;;;;;;;8.58;4.08;;;;;;;2.36;69.92;97211.42;346423;115;1961997;-74
2021/01/26 05:30:24;;;;;;;9.26;4.96;;;;;;;2.46;69.87;97226.11;355674;111;1961963;-75
2021/01/26 05:31:28;;;;;;;10.48;5.71;;;;;;;2.46;69.72;97229.62;355557;111;1962110;-74
2021/01/26 05:32:35;;;;;;;11.38;5.27;;;;;;;2.48;69.99;97230.20;345546;115;1962032;-74
2021/01/26 05:33:44;;;;;;;10.21;5.58;;;;;;;2.43;69.43;97277.98;340737;117;1961046;-74